Time;durP1;ratioP1;P1;durP2;ratioP2;P2;SDS_P1;SDS_P2;PMS_P1;PMS_P2;Temp;Humidity;BMP_temperature;BMP_pressure;BME280_temperature;BME280_humidity;BME280_pressure;Samples;Min_cycle;Max_cycle;Signal;HPM_P1;HPM_P2
2023/08/04 00:03:40;;;;;;;5.53;2.60;;;;;;;16.53;100.00;99160.88;12200754;19;20010;-82
2023/08/04 00:07:43;;;;;;;6.20;2.60;;;;;;;16.51;100.00;99165.09;12219852;19;20011;-82
2023/08/04 00:11:45;;;;;;;4.70;2.63;;;;;;;16.50;100.00;99160.69;12224900;19;20006;-82
2023/08/04 00:15:47;;;;;;;4.27;2.40;;;;;;;16.47;100.00;99164.91;12200682;19;20081;-81
2023/08/04 00:19:49;;;;;;;3.90;2.50;;;;;;;16.46;100.00;99165.22;12221505;19;20010;-81
2023/08/04 00:23:57;;;;;;;5.93;2.42;;;;;;;16.45;100.00;99167.19;12220217;19;20272;-80
2023/08/04 00:27:59;;;;;;;5.03;2.40;;;;;;;16.44;100.00;99167.47;12198872;19;20014;-80
2023/08/04 00:32:01;;;;;;;3.70;2.13;;;;;;;16.42;100.00;99162.22;12222597;19;20007;-82
2023/08/04 00:36:03;;;;;;;4.47;2.47;;;;;;;16.41;100.00;99166.94;12198441;19;20007;-81
2023/08/04 00:40:06;;;;;;;5.60;2.25;;;;;;;16.43;100.00;99163.84;12219149;19;20023;-81
2023/08/04 00:44:08;;;;;;;5.43;2.30;;;;;;;16.40;100.00;99156.13;12213286;19;20446;-81
2023/08/04 00:48:10;;;;;;;6.10;2.70;;;;;;;16.36;100.00;99157.88;12197735;19;20003;-81
2023/08/04 00:52:12;;;;;;;7.30;2.60;;;;;;;16.31;100.00;99156.00;12220877;19;20085;-81
2023/08/04 00:56:15;;;;;;;4.95;2.60;;;;;;;16.28;100.00;99159.38;12219118;19;20015;-80
2023/08/04 01:00:17;;;;;;;4.32;2.50;;;;;;;16.25;100.00;99162.78;12197371;19;20496;-80
2023/08/04 01:04:20;;;;;;;6.78;2.47;;;;;;;16.22;100.00;99157.00;12218433;19;20017;-80
2023/08/04 01:08:24;;;;;;;;;;;;;;;16.19;100.00;99161.22;12218389;19;20030;-82
2023/08/04 01:12:51;;;;;;;;;;;;;;;16.20;100.00;99160.06;12196940;19;19974;-81
2023/08/04 01:16:54;;;;;;;4.35;2.38;;;;;;;16.22;100.00;99155.03;12218075;19;19918;-82
2023/08/04 01:21:01;;;;;;;6.20;2.85;;;;;;;16.26;100.00;99155.25;12197094;19;20359;-81
2023/08/04 01:25:04;;;;;;;4.82;2.30;;;;;;;16.24;100.00;99150.00;12214257;19;20102;-81
2023/08/04 01:29:07;;;;;;;6.77;2.83;;;;;;;16.24;100.00;99155.56;12215010;19;20027;-81
2023/08/04 01:33:09;;;;;;;7.80;3.10;;;;;;;16.24;100.00;99150.00;12195791;19;20703;-81
2023/08/04 01:37:11;;;;;;;5.20;3.13;;;;;;;16.27;100.00;99151.34;12213568;19;20018;-80
2023/08/04 01:41:13;;;;;;;8.80;2.93;;;;;;;16.29;100.00;99158.25;12213005;19;20014;-81
2023/08/04 01:45:14;;;;;;;7.55;2.70;;;;;;;16.33;100.00;99159.31;12192415;19;20147;-81
2023/08/04 01:49:16;;;;;;;8.20;3.17;;;;;;;16.35;100.00;99159.81;12214187;19;20014;-81
2023/08/04 01:53:18;;;;;;;7.20;2.50;;;;;;;16.35;100.00;99159.81;12216958;19;20027;-79
2023/08/04 01:57:20;;;;;;;6.03;2.45;;;;;;;16.37;100.00;99163.13;12196053;19;20011;-81
2023/08/04 02:01:22;;;;;;;5.50;3.65;;;;;;;16.39;100.00;99162.84;12216283;19;20006;-80
2023/08/04 02:05:24;;;;;;;9.00;3.03;;;;;;;16.39;100.00;99165.59;12212000;19;20014;-81
2023/08/04 02:09:27;;;;;;;7.13;3.28;;;;;;;16.40;100.00;99170.84;12193643;19;20339;-80
2023/08/04 02:13:30;;;;;;;5.15;2.50;;;;;;;16.38;100.00;99173.09;12221394;19;20011;-82
2023/08/04 02:17:34;;;;;;;5.25;2.60;;;;;;;16.39;100.00;99171.19;12239115;19;20332;-79
2023/08/04 02:21:38;;;;;;;8.48;2.95;;;;;;;16.40;100.00;99168.06;12237056;19;20014;-79
2023/08/04 02:25:40;;;;;;;6.53;2.83;;;;;;;16.37;100.00;99168.69;12262473;19;20011;-80
2023/08/04 02:29:41;;;;;;;7.38;2.97;;;;;;;16.38;100.00;99175.88;12262186;19;20014;-80
2023/08/04 02:33:44;;;;;;;;;;;;;;;16.37;100.00;99171.47;12240277;19;20013;-80
2023/08/04 02:37:46;;;;;;;8.63;3.10;;;;;;;16.40;100.00;99175.59;12260838;19;19931;-80
2023/08/04 02:41:48;;;;;;;12.60;3.17;;;;;;;16.39;100.00;99177.56;12257365;19;20018;-81
2023/08/04 02:45:50;;;;;;;8.75;2.90;;;;;;;16.39;100.00;99183.13;12229122;19;20003;-81
2023/08/04 02:49:53;;;;;;;10.30;3.47;;;;;;;16.38;100.00;99184.22;12256393;19;20002;-80
2023/08/04 02:53:54;;;;;;;7.22;2.97;;;;;;;16.37;100.00;99181.75;12235219;19;20268;-80
2023/08/04 02:57:56;;;;;;;6.88;2.80;;;;;;;16.36;100.00;99186.50;12254114;19;20010;-81
2023/08/04 03:01:58;;;;;;;9.77;3.03;;;;;;;16.32;100.00;99185.44;12249131;19;20116;-82
2023/08/04 03:06:01;;;;;;;8.40;3.17;;;;;;;16.29;100.00;99177.72;12200031;19;20011;-83
2023/08/04 03:10:03;;;;;;;10.30;3.58;;;;;;;16.28;100.00;99180.81;12221076;19;20091;-83
2023/08/04 03:14:05;;;;;;;6.10;2.83;;;;;;;16.26;100.00;99180.28;12232998;19;20022;-82
2023/08/04 03:18:07;;;;;;;8.68;3.65;;;;;;;16.27;100.00;99188.31;12214430;19;20011;-82
2023/08/04 03:22:09;;;;;;;7.03;3.30;;;;;;;16.29;100.00;99190.78;12219941;19;20011;-81
2023/08/04 03:26:10;;;;;;;7.05;3.50;;;;;;;16.30;100.00;99192.44;12218618;19;20555;-83
2023/08/04 03:30:12;;;;;;;6.97;3.10;;;;;;;16.31;100.00;99194.09;12194754;19;20029;-81
2023/08/04 03:34:14;;;;;;;5.15;2.75;;;;;;;16.32;100.00;99191.00;12217131;19;20029;-82
2023/08/04 03:38:15;;;;;;;5.88;2.83;;;;;;;16.35;100.00;99192.34;12218611;19;20011;-82
2023/08/04 03:42:17;;;;;;;14.98;3.63;;;;;;;16.35;100.00;99197.91;12193914;19;20027;-82
2023/08/04 03:46:19;;;;;;;11.30;3.60;;;;;;;16.32;100.00;99195.75;12209894;19;20011;-84
2023/08/04 03:50:24;;;;;;;10.65;4.03;;;;;;;16.21;100.00;99191.47;12212989;19;20480;-84
2023/08/04 03:54:26;;;;;;;9.90;4.20;;;;;;;16.18;100.00;99202.06;12197589;19;20015;-86
2023/08/04 03:58:28;;;;;;;10.75;4.75;;;;;;;16.14;100.00;99200.19;12222598;19;20022;-82
2023/08/04 04:02:30;;;;;;;9.18;4.22;;;;;;;16.12;100.00;99211.63;12213903;19;20372;-82
2023/08/04 04:06:32;;;;;;;10.77;3.97;;;;;;;16.07;100.00;99213.66;12185814;19;20014;-82
2023/08/04 04:10:34;;;;;;;8.88;4.45;;;;;;;16.03;100.00;99210.66;12206564;19;20452;-82
2023/08/04 04:14:36;;;;;;;5.57;2.92;;;;;;;15.90;100.00;99203.06;12214479;19;20090;-84
2023/08/04 04:18:37;;;;;;;6.60;2.17;;;;;;;15.80;100.00;99206.81;12195621;19;20486;-83
2023/08/04 04:22:39;;;;;;;8.02;3.20;;;;;;;15.69;100.00;99225.56;12216158;19;20935;-83
2023/08/04 04:26:41;;;;;;;5.93;2.80;;;;;;;15.60;100.00;99227.31;12217300;19;20007;-86
2023/08/04 04:30:43;;;;;;;4.72;1.73;;;;;;;15.54;100.00;99222.94;12193319;19;19999;-84
2023/08/04 04:34:45;;;;;;;6.05;2.22;;;;;;;15.49;100.00;99234.94;12213309;19;20010;-83
2023/08/04 04:38:46;;;;;;;9.65;3.60;;;;;;;15.46;100.00;99226.38;12213423;19;20070;-83
2023/08/04 04:42:48;;;;;;;8.65;3.53;;;;;;;15.40;100.00;99227.56;12191033;19;20084;-84
2023/08/04 04:46:50;;;;;;;8.02;3.50;;;;;;;15.36;100.00;99226.50;12212377;19;20033;-84
2023/08/04 04:50:53;;;;;;;9.98;4.03;;;;;;;15.32;100.00;99240.16;12209318;19;20024;-83
2023/08/04 04:54:54;;;;;;;12.05;4.68;;;;;;;15.31;100.00;99234.88;12213831;19;20411;-83
2023/08/04 04:58:56;;;;;;;9.98;4.30;;;;;;;15.30;100.00;99230.47;12212836;19;20010;-84
2023/08/04 05:02:58;;;;;;;8.13;4.00;;;;;;;15.28;100.00;99245.44;12191782;19;20018;-84
2023/08/04 05:07:00;;;;;;;14.05;5.20;;;;;;;15.31;100.00;99237.66;12210819;19;20018;-83
2023/08/04 05:11:01;;;;;;;11.30;4.95;;;;;;;15.34;100.00;99242.63;12211070;19;20074;-83
2023/08/04 05:15:04;;;;;;;13.40;5.77;;;;;;;15.37;100.00;99242.84;12188913;19;20014;-84
2023/08/04 05:19:06;;;;;;;9.77;5.00;;;;;;;15.42;100.00;99248.34;12211694;19;20331;-83
2023/08/04 05:23:07;;;;;;;13.63;5.88;;;;;;;15.47;100.00;99245.53;12211962;19;20046;-83
2023/08/04 05:27:09;;;;;;;10.73;5.07;;;;;;;15.54;100.00;99252.66;12189985;19;20569;-84
2023/08/04 05:31:11;;;;;;;13.35;5.20;;;;;;;15.57;100.00;99257.63;12212241;19;20007;-84
2023/08/04 05:35:13;;;;;;;12.00;4.90;;;;;;;15.60;100.00;99254.25;12210627;19;20007;-83
2023/08/04 05:39:15;;;;;;;9.63;4.55;;;;;;;15.64;100.00;99264.47;12189385;19;20074;-83
2023/08/04 05:43:17;;;;;;;9.05;4.25;;;;;;;15.68;100.00;99273.09;12211203;19;20406;-83
2023/08/04 05:47:20;;;;;;;8.80;4.20;;;;;;;15.70;100.00;99273.59;12208580;19;20078;-83
2023/08/04 05:51:22;;;;;;;4.85;2.80;;;;;;;15.69;100.00;99269.16;12187211;19;20999;-82
2023/08/04 05:55:24;;;;;;;6.75;3.10;;;;;;;15.70;100.00;99279.16;12211135;19;20448;-84
2023/08/04 05:59:26;;;;;;;5.33;3.30;;;;;;;15.70;100.00;99282.78;12207603;19;20015;-84
2023/08/04 06:03:28;;;;;;;7.38;3.67;;;;;;;15.66;100.00;99284.44;12188282;19;20078;-85
2023/08/04 06:07:30;;;;;;;14.00;4.37;;;;;;;15.68;100.00;99281.41;12206826;19;20026;-84
2023/08/04 06:11:32;;;;;;;10.95;4.25;;;;;;;15.73;100.00;99295.22;12208172;19;20660;-84
2023/08/04 06:15:34;;;;;;;8.27;4.40;;;;;;;15.80;100.00;99292.94;12192116;19;20018;-84
2023/08/04 06:19:39;;;;;;;10.60;5.00;;;;;;;15.85;100.00;99303.13;12208315;19;20010;-83
2023/08/04 06:23:45;;;;;;;12.60;5.28;;;;;;;15.86;100.00;99311.19;12205379;19;20006;-84
2023/08/04 06:27:47;;;;;;;11.80;5.75;;;;;;;15.82;100.00;99310.09;12187847;19;20011;-85
2023/08/04 06:31:49;;;;;;;14.85;6.10;;;;;;;15.82;100.00;99317.63;12206374;19;20548;-84
2023/08/04 06:35:54;;;;;;;15.73;6.53;;;;;;;15.86;100.00;99322.28;12184890;19;20402;-84
2023/08/04 06:39:55;;;;;;;11.10;5.47;;;;;;;15.91;100.00;99318.59;12207577;19;20445;-84
2023/08/04 06:43:57;;;;;;;9.68;5.40;;;;;;;15.98;100.00;99329.38;12207265;19;20015;-84
2023/08/04 06:47:59;;;;;;;9.80;5.35;;;;;;;16.07;100.00;99327.59;12186460;19;20466;-87
2023/08/04 06:52:02;;;;;;;13.68;6.47;;;;;;;16.15;100.00;99335.25;12208258;19;20006;-86
2023/08/04 06:56:03;;;;;;;;;;;;;;;16.12;100.00;99335.84;12209436;19;20035;-86
2023/08/04 07:00:06;;;;;;;11.43;6.10;;;;;;;16.12;100.00;99344.19;12185336;19;20386;-85
2023/08/04 07:04:08;;;;;;;14.07;5.65;;;;;;;16.09;100.00;99342.84;12206672;19;20014;-85
2023/08/04 07:08:13;;;;;;;8.63;4.43;;;;;;;16.02;100.00;99341.56;12205943;19;20017;-84
2023/08/04 07:12:18;;;;;;;11.88;5.00;;;;;;;15.95;100.00;99347.47;12185110;19;20019;-85
2023/08/04 07:16:21;;;;;;;9.20;4.90;;;;;;;15.94;100.00;99345.81;12206466;19;20007;-85
2023/08/04 07:20:22;;;;;;;10.00;4.82;;;;;;;15.93;100.00;99350.53;12205339;19;20031;-84
2023/08/04 07:24:25;;;;;;;12.60;6.03;;;;;;;15.95;100.00;99353.84;12182542;19;20015;-85
2023/08/04 07:28:28;;;;;;;9.63;5.80;;;;;;;15.96;100.00;99354.69;12207121;19;20011;-83
2023/08/04 07:32:30;;;;;;;12.93;6.43;;;;;;;15.93;100.00;99356.09;12204491;19;20010;-84
2023/08/04 07:36:31;;;;;;;10.70;6.25;;;;;;;16.04;100.00;99369.88;12180363;19;20477;-84
2023/08/04 07:40:38;;;;;;;9.35;5.97;;;;;;;16.18;100.00;99371.63;12205554;19;20784;-83
2023/08/04 07:44:39;;;;;;;11.02;4.75;;;;;;;16.31;100.00;99374.81;12204643;19;20006;-84
2023/08/04 07:48:41;;;;;;;10.05;5.43;;;;;;;16.46;100.00;99376.56;12188805;19;20645;-84
2023/08/04 07:52:43;;;;;;;10.77;6.15;;;;;;;16.68;100.00;99374.00;12218353;19;20532;-84
2023/08/04 07:56:44;;;;;;;9.48;5.55;;;;;;;16.90;100.00;99369.81;12217669;19;20007;-85
2023/08/04 08:00:46;;;;;;;10.38;5.28;;;;;;;17.17;100.00;99371.88;12199460;19;20559;-85
2023/08/04 08:04:48;;;;;;;13.77;6.22;;;;;;;17.43;100.00;99372.25;12218158;19;20071;-86
2023/08/04 08:08:50;;;;;;;8.30;5.72;;;;;;;17.68;100.00;99374.56;12218340;19;20038;-86
2023/08/04 08:12:52;;;;;;;9.73;5.40;;;;;;;17.94;100.00;99383.31;12196310;19;20066;-87
2023/08/04 08:16:54;;;;;;;9.30;6.03;;;;;;;18.01;100.00;99382.06;12220512;19;20014;-88
2023/08/04 08:20:55;;;;;;;11.43;6.10;;;;;;;18.05;100.00;99386.69;12199062;19;20010;-88
2023/08/04 08:24:57;;;;;;;11.38;7.15;;;;;;;18.26;100.00;99387.09;12215828;19;20090;-88
2023/08/04 08:28:59;;;;;;;10.27;6.80;;;;;;;18.38;100.00;99386.56;12218115;19;20042;-87
2023/08/04 08:33:01;;;;;;;10.82;6.93;;;;;;;18.48;100.00;99388.34;12197394;19;20010;-88
2023/08/04 08:37:03;;;;;;;10.48;7.22;;;;;;;18.69;100.00;99397.91;12218801;19;20010;-89
2023/08/04 08:41:04;;;;;;;10.70;5.93;;;;;;;18.87;100.00;99402.53;12221202;19;20015;-89
2023/08/04 08:45:07;;;;;;;9.20;5.83;;;;;;;19.01;100.00;99410.88;12196537;19;20094;-89
2023/08/04 08:49:10;;;;;;;9.20;5.97;;;;;;;19.08;100.00;99405.66;12236441;19;20034;-88
2023/08/04 08:53:17;;;;;;;;;;;;;;;19.13;100.00;99408.34;12243557;19;20010;-88
2023/08/04 08:57:55;;;;;;;8.38;4.95;;;;;;;19.12;100.00;99415.03;12237562;19;19929;-90
2023/08/04 09:02:00;;;;;;;8.65;5.45;;;;;;;19.05;100.00;99428.63;12224983;19;20002;-89
2023/08/04 09:11:08;;;;;;;10.13;6.17;;;;;;;19.04;100.00;99424.19;12215954;19;20033;-89
2023/08/04 09:15:10;;;;;;;10.32;6.25;;;;;;;19.22;100.00;99422.38;12197788;19;20015;-88
2023/08/04 09:19:12;;;;;;;11.43;6.93;;;;;;;19.18;100.00;99423.31;12219316;19;20014;-86
2023/08/04 09:23:14;;;;;;;7.72;5.72;;;;;;;19.16;100.00;99423.63;12212930;19;20010;-86
2023/08/04 09:27:35;;;;;;;13.35;6.68;;;;;;;19.33;100.00;99423.78;12196979;19;20018;-87
2023/08/04 09:31:39;;;;;;;10.85;7.63;;;;;;;19.59;100.00;99429.50;12219909;19;20006;-88
2023/08/04 09:35:41;;;;;;;12.27;7.70;;;;;;;20.01;100.00;99430.09;12222528;19;20030;-86
2023/08/04 09:39:46;;;;;;;11.27;7.50;;;;;;;20.40;100.00;99434.03;12198811;19;20014;-86
2023/08/04 09:43:49;;;;;;;14.18;8.13;;;;;;;20.65;100.00;99421.31;12218932;19;20014;-87
2023/08/04 09:47:51;;;;;;;12.95;8.57;;;;;;;21.03;100.00;99429.09;12217469;19;20465;-88
2023/08/04 09:51:56;;;;;;;12.40;7.72;;;;;;;21.27;100.00;99425.78;12198323;19;20489;-86
2023/08/04 09:55:59;;;;;;;11.15;8.35;;;;;;;21.42;100.00;99429.25;12230813;19;20424;-87
2023/08/04 10:00:01;;;;;;;10.70;7.07;;;;;;;21.16;100.00;99432.88;12201854;19;20007;-84
2023/08/04 10:04:04;;;;;;;11.68;7.55;;;;;;;20.87;100.00;99434.34;12222409;19;20011;-86
2023/08/04 10:08:06;;;;;;;13.43;8.80;;;;;;;20.52;100.00;99435.38;12222161;19;20119;-88
2023/08/04 10:12:10;;;;;;;14.88;9.65;;;;;;;20.22;100.00;99440.72;12199176;19;20080;-88
2023/08/04 10:16:14;;;;;;;12.73;9.23;;;;;;;19.86;100.00;99444.50;12218114;19;20011;-87
2023/08/04 10:20:16;;;;;;;13.98;8.52;;;;;;;19.44;100.00;99438.28;12219933;19;20009;-86
2023/08/04 10:24:21;;;;;;;19.73;10.32;;;;;;;19.26;100.00;99444.91;12191053;19;20006;-86
2023/08/04 10:28:23;;;;;;;15.07;9.23;;;;;;;19.16;100.00;99450.75;12217680;19;20528;-87
2023/08/04 10:32:34;;;;;;;16.48;9.15;;;;;;;19.26;100.00;99447.69;12216622;19;20014;-86
2023/08/04 10:37:11;;;;;;;14.88;9.05;;;;;;;19.51;100.00;99447.06;12206315;19;20007;-88
2023/08/04 10:41:13;;;;;;;14.68;9.55;;;;;;;19.93;100.00;99436.50;12227946;19;20025;-86
2023/08/04 10:45:15;;;;;;;15.82;8.95;;;;;;;20.57;100.00;99441.69;12203681;19;20018;-88
2023/08/04 10:49:16;;;;;;;17.03;9.10;;;;;;;21.05;100.00;99446.38;12221860;19;20009;-86
2023/08/04 10:53:18;;;;;;;15.63;9.53;;;;;;;21.51;100.00;99438.50;12214271;19;20020;-89
2023/08/04 11:01:58;;;;;;;12.38;7.93;;;;;;;21.89;100.00;99446.97;12212055;19;20007;-87
2023/08/04 11:06:00;;;;;;;12.27;7.20;;;;;;;21.91;100.00;99449.47;12187177;19;20046;-90
2023/08/04 11:10:07;;;;;;;14.00;7.25;;;;;;;21.99;100.00;99451.44;12212451;19;20848;-88
2023/08/04 11:14:09;;;;;;;9.60;6.97;;;;;;;22.11;100.00;99461.94;12211191;19;20646;-90
2023/08/04 11:18:26;;;;;;;10.90;7.07;;;;;;;22.41;100.00;99454.44;12194940;19;20015;-87
2023/08/04 11:22:28;;;;;;;9.57;6.25;;;;;;;22.87;100.00;99459.09;12216573;19;20006;-85
2023/08/04 11:26:30;;;;;;;10.03;6.83;;;;;;;22.89;100.00;99461.59;12223614;19;20014;-84
2023/08/04 11:30:35;;;;;;;10.98;6.35;;;;;;;22.62;100.00;99460.91;12198549;19;20018;-83
2023/08/04 11:34:40;;;;;;;10.90;7.28;;;;;;;22.69;100.00;99464.00;12220939;19;20702;-84
2023/08/04 11:38:42;;;;;;;11.10;6.47;;;;;;;22.52;100.00;99466.94;12224360;19;20002;-84
2023/08/04 11:42:44;;;;;;;11.73;6.15;;;;;;;22.27;100.00;99475.09;12203917;19;20861;-85
2023/08/04 11:46:46;;;;;;;10.63;6.20;;;;;;;22.25;100.00;99469.03;12222449;19;20014;-85
2023/08/04 11:50:48;;;;;;;9.18;6.10;;;;;;;22.29;100.00;99478.41;12225604;19;20018;-85
2023/08/04 11:54:59;;;;;;;10.40;6.22;;;;;;;21.96;100.00;99488.56;12204972;19;20379;-84
2023/08/04 11:59:08;;;;;;;15.15;6.43;;;;;;;21.37;100.00;99489.13;12226606;19;20022;-85
2023/08/04 12:03:10;;;;;;;9.00;5.80;;;;;;;20.82;100.00;99487.72;12202445;19;20768;-85
2023/08/04 12:07:12;;;;;;;14.10;7.30;;;;;;;20.42;100.00;99489.69;12227711;19;20007;-85
2023/08/04 12:11:16;;;;;;;8.10;5.77;;;;;;;20.07;100.00;99495.13;12228861;19;20018;-84
2023/08/04 12:15:18;;;;;;;11.05;6.63;;;;;;;19.74;100.00;99501.00;12201616;19;20014;-85
2023/08/04 12:19:21;;;;;;;11.40;7.30;;;;;;;19.46;100.00;99503.06;12223369;19;20002;-86
2023/08/04 12:23:23;;;;;;;11.25;6.85;;;;;;;19.29;100.00;99502.94;12221210;19;20014;-88
2023/08/04 12:27:25;;;;;;;9.82;7.43;;;;;;;19.20;100.00;99496.44;12205817;19;20010;-89
2023/08/04 12:31:27;;;;;;;12.50;7.30;;;;;;;19.16;100.00;99503.81;12225107;19;20011;-89
2023/08/04 12:35:29;;;;;;;10.73;7.07;;;;;;;19.10;100.00;99503.91;12227650;19;20011;-89
2023/08/04 12:39:33;;;;;;;12.83;6.93;;;;;;;19.21;100.00;99500.88;12238672;19;20014;-89
2023/08/04 12:43:35;;;;;;;10.82;6.78;;;;;;;19.40;100.00;99507.13;12261422;19;20014;-88
2023/08/04 12:47:37;;;;;;;8.13;5.53;;;;;;;19.56;100.00;99496.41;12256454;19;20036;-88
2023/08/04 12:51:39;;;;;;;10.27;5.93;;;;;;;19.71;100.00;99492.44;12220224;19;20018;-87
2023/08/04 12:55:40;;;;;;;10.80;5.87;;;;;;;19.92;100.00;99487.13;12227577;19;20006;-87
2023/08/04 12:59:42;;;;;;;10.57;5.70;;;;;;;20.14;100.00;99494.69;12220496;19;20003;-87
2023/08/04 13:03:44;;;;;;;11.50;5.88;;;;;;;20.35;100.00;99494.94;12199372;19;20078;-88
2023/08/04 13:07:46;;;;;;;10.40;5.20;;;;;;;20.47;100.00;99493.19;12220855;19;20464;-86
2023/08/04 13:11:48;;;;;;;10.82;6.07;;;;;;;20.60;100.00;99493.41;12224700;19;20484;-87
2023/08/04 13:15:50;;;;;;;8.85;5.35;;;;;;;20.78;100.00;99477.47;12199671;19;20091;-88
2023/08/04 13:19:54;;;;;;;9.20;4.40;;;;;;;20.90;100.00;99484.09;12228392;19;20006;-87
2023/08/04 13:23:55;;;;;;;8.60;4.60;;;;;;;21.07;100.00;99485.28;12206893;19;20006;-87
2023/08/04 13:27:58;;;;;;;6.93;4.70;;;;;;;21.39;100.00;99473.63;12222335;19;20513;-87
2023/08/04 13:32:00;;;;;;;11.02;4.32;;;;;;;21.78;100.00;99482.97;12217747;19;20067;-86
2023/08/04 13:36:05;;;;;;;11.90;5.03;;;;;;;22.36;100.00;99477.06;12195480;19;20014;-86
2023/08/04 13:40:18;;;;;;;7.32;4.53;;;;;;;23.92;100.00;99478.78;12193494;19;20010;-87
2023/08/04 13:49:03;;;;;;;5.80;3.50;;;;;;;27.01;86.11;99467.03;12207147;19;20151;-85
2023/08/04 13:53:05;;;;;;;6.75;3.75;;;;;;;27.52;81.97;99468.97;12203863;19;20015;-83
2023/08/04 13:57:07;;;;;;;6.57;3.38;;;;;;;28.36;72.19;99471.81;12189506;19;20092;-83
2023/08/04 14:01:08;;;;;;;7.15;2.75;;;;;;;28.93;63.51;99474.81;12211191;19;20019;-81
2023/08/04 14:05:10;;;;;;;4.70;2.90;;;;;;;28.38;64.66;99477.94;12210906;19;20007;-82
2023/08/04 14:09:12;;;;;;;;;;;;;;;27.44;70.71;99463.16;12189055;19;20043;-82
2023/08/04 14:13:14;;;;;;;5.83;3.23;;;;;;;26.92;69.96;99466.38;12215243;19;19927;-82
2023/08/04 14:17:15;;;;;;;6.78;2.80;;;;;;;26.79;68.20;99474.97;12211554;19;20407;-82
2023/08/04 14:21:17;;;;;;;6.65;2.95;;;;;;;26.96;66.30;99467.31;12195657;19;20010;-82
2023/08/04 14:25:19;;;;;;;5.78;3.78;;;;;;;26.52;71.06;99475.94;12212313;19;20007;-82
2023/08/04 14:29:21;;;;;;;;;;;;;;;25.84;73.91;99474.91;12215939;19;20355;-82
2023/08/04 14:33:23;;;;;;;7.23;3.93;;;;;;;25.31;75.96;99467.69;12193744;19;19923;-83
2023/08/04 14:37:25;;;;;;;7.65;3.35;;;;;;;24.80;80.65;99470.91;12211813;19;20457;-82
2023/08/04 14:41:26;;;;;;;13.48;3.95;;;;;;;24.49;82.22;99482.78;12212654;19;20010;-82
2023/08/04 14:45:31;;;;;;;7.68;3.80;;;;;;;24.25;83.34;99484.38;12189440;19;20010;-83
2023/08/04 14:49:37;;;;;;;5.40;3.50;;;;;;;24.03;83.80;99484.78;12213101;19;20007;-82
2023/08/04 14:53:39;;;;;;;10.20;4.03;;;;;;;23.73;87.60;99487.72;12213055;19;20033;-83
2023/08/04 14:57:41;;;;;;;5.45;3.65;;;;;;;24.14;86.42;99491.63;12195419;19;20029;-82
2023/08/04 15:01:43;;;;;;;7.43;3.53;;;;;;;24.31;83.60;99477.34;12211415;19;20010;-82
2023/08/04 15:05:45;;;;;;;8.75;3.67;;;;;;;23.91;86.50;99473.50;12205015;19;20371;-82
2023/08/04 15:09:49;;;;;;;9.18;4.07;;;;;;;23.67;88.14;99484.28;12188679;19;20015;-83
2023/08/04 15:13:51;;;;;;;9.35;3.55;;;;;;;23.44;86.25;99488.66;12213759;19;20006;-83
2023/08/04 15:17:53;;;;;;;6.07;3.35;;;;;;;23.17;89.40;99478.75;12203328;19;20011;-83
2023/08/04 15:21:55;;;;;;;5.10;3.25;;;;;;;22.71;91.28;99472.91;12212584;19;20376;-82
2023/08/04 15:26:00;;;;;;;5.60;3.63;;;;;;;22.41;94.13;99462.84;12211349;19;20130;-82
2023/08/04 15:30:02;;;;;;;8.77;4.50;;;;;;;22.21;95.42;99461.59;12189769;19;20019;-82
2023/08/04 15:34:07;;;;;;;7.45;3.67;;;;;;;22.00;99.36;99464.28;12219106;19;20010;-83
2023/08/04 15:38:09;;;;;;;5.30;3.42;;;;;;;21.79;100.00;99458.56;12210156;19;20018;-82
2023/08/04 15:42:10;;;;;;;5.97;3.60;;;;;;;21.59;100.00;99468.47;12190132;19;20007;-83
2023/08/04 15:46:12;;;;;;;7.53;3.50;;;;;;;21.41;100.00;99470.47;12211254;19;20014;-83
2023/08/04 15:50:14;;;;;;;6.30;3.47;;;;;;;21.31;100.00;99482.00;12236787;19;20015;-82
2023/08/04 15:54:16;;;;;;;;;;;;;;;21.10;100.00;99476.22;12182317;19;20008;-83
2023/08/04 15:58:18;;;;;;;6.93;3.60;;;;;;;20.96;100.00;99484.75;12210852;19;19918;-82
2023/08/04 16:02:20;;;;;;;11.67;4.37;;;;;;;20.82;100.00;99487.72;12215862;19;20018;-82
2023/08/04 16:06:22;;;;;;;6.23;3.37;;;;;;;20.69;100.00;99486.69;12186784;19;20017;-83
2023/08/04 16:10:23;;;;;;;6.67;3.60;;;;;;;20.59;100.00;99494.56;12225736;19;20007;-83
2023/08/04 16:14:25;;;;;;;11.73;3.83;;;;;;;20.55;100.00;99499.16;12229900;19;20869;-82
2023/08/04 16:18:34;;;;;;;8.40;3.85;;;;;;;20.46;100.00;99511.13;12219951;19;20007;-83
2023/08/04 16:22:37;;;;;;;5.57;3.60;;;;;;;20.32;100.00;99516.00;12243043;19;20167;-83
2023/08/04 16:26:39;;;;;;;;;;;;;;;20.10;100.00;99518.81;12245992;19;20007;-83
2023/08/04 16:30:40;;;;;;;10.70;4.10;;;;;;;19.95;100.00;99526.47;12224599;19;19907;-81
2023/08/04 16:34:42;;;;;;;10.07;4.03;;;;;;;19.80;100.00;99521.28;12242743;19;20006;-83
2023/08/04 16:38:44;;;;;;;10.07;3.80;;;;;;;19.67;100.00;99528.59;12224254;19;20003;-83
2023/08/04 16:42:46;;;;;;;11.10;4.37;;;;;;;19.56;100.00;99527.97;12200203;19;20003;-84
2023/08/04 16:46:48;;;;;;;8.70;4.50;;;;;;;19.45;100.00;99529.34;12224321;19;20014;-83
2023/08/04 16:50:50;;;;;;;10.63;4.75;;;;;;;19.21;100.00;99543.59;12220884;19;20018;-86
2023/08/04 16:54:52;;;;;;;11.05;5.43;;;;;;;18.69;100.00;99545.81;12191123;19;20014;-86
2023/08/04 16:58:54;;;;;;;11.27;5.67;;;;;;;18.31;100.00;99556.31;12220721;19;20046;-86
2023/08/04 17:02:56;;;;;;;11.90;5.72;;;;;;;18.05;100.00;99569.88;12223244;19;20018;-86
2023/08/04 17:06:58;;;;;;;14.15;7.35;;;;;;;17.91;100.00;99572.66;12197983;19;20093;-86
2023/08/04 17:11:00;;;;;;;8.75;6.15;;;;;;;17.85;100.00;99587.81;12219047;19;20010;-86
2023/08/04 17:15:02;;;;;;;15.63;7.53;;;;;;;17.89;100.00;99586.88;12195053;19;20023;-85
2023/08/04 17:19:04;;;;;;;13.23;6.80;;;;;;;17.92;100.00;99589.06;12213925;19;20398;-87
2023/08/04 17:23:05;;;;;;;13.60;7.40;;;;;;;17.94;100.00;99594.34;12209433;19;20500;-88
2023/08/04 17:27:07;;;;;;;19.50;10.18;;;;;;;17.90;100.00;99605.25;12190261;19;20010;-87
2023/08/04 17:31:09;;;;;;;12.87;7.73;;;;;;;17.84;100.00;99597.28;12217553;19;20011;-87
2023/08/04 17:35:11;;;;;;;12.33;7.10;;;;;;;17.83;100.00;99601.22;12213109;19;20370;-86
2023/08/04 17:39:13;;;;;;;16.48;7.28;;;;;;;17.83;100.00;99595.63;12192892;19;20031;-87
2023/08/04 17:43:15;;;;;;;12.70;7.22;;;;;;;17.83;100.00;99595.63;12212293;19;20074;-87
2023/08/04 17:47:17;;;;;;;13.55;7.18;;;;;;;17.80;100.00;99601.81;12215995;19;20022;-88
2023/08/04 17:51:19;;;;;;;11.07;6.68;;;;;;;17.75;100.00;99600.72;12201681;19;20014;-87
2023/08/04 17:55:21;;;;;;;9.48;6.43;;;;;;;17.75;100.00;99589.56;12215907;19;20014;-90
2023/08/04 18:00:13;;;;;;;13.65;6.63;;;;;;;17.73;100.00;99589.06;12212172;19;20057;-90
2023/08/04 18:15:08;;;;;;;14.50;6.65;;;;;;;17.16;100.00;99610.47;12203822;19;20411;-88
2023/08/04 18:19:24;;;;;;;15.23;6.65;;;;;;;17.02;100.00;99612.34;12205582;19;20073;-87
2023/08/04 18:24:10;;;;;;;14.70;7.28;;;;;;;16.91;100.00;99617.19;12206136;19;20014;-88
2023/08/04 18:28:31;;;;;;;10.38;5.57;;;;;;;16.78;100.00;99613.19;12187873;19;20035;-88
2023/08/04 18:32:54;;;;;;;15.35;6.60;;;;;;;16.72;100.00;99624.63;12208997;19;20010;-89
2023/08/04 18:37:23;;;;;;;13.85;6.47;;;;;;;16.69;100.00;99623.28;12182728;19;20007;-88
2023/08/04 18:42:20;;;;;;;12.40;6.55;;;;;;;16.66;100.00;99632.22;12186792;19;19999;-88
2023/08/04 18:47:05;;;;;;;16.92;7.63;;;;;;;16.63;100.00;99630.84;12212040;19;20370;-88
2023/08/04 18:51:57;;;;;;;15.38;7.65;;;;;;;16.54;100.00;99626.22;12176037;19;20473;-88
2023/08/04 18:56:10;;;;;;;14.15;8.52;;;;;;;16.45;100.00;99628.81;12207333;19;20018;-88
2023/08/04 19:00:31;;;;;;;29.05;17.05;;;;;;;16.35;100.00;99629.72;12180636;19;20046;-88
2023/08/04 19:10:27;;;;;;;13.35;6.45;;;;;;;16.19;100.00;99636.56;12185276;19;20078;-88
2023/08/04 19:14:35;;;;;;;14.48;7.28;;;;;;;16.15;100.00;99641.00;12206456;19;20014;-88